sensor_id;sensor_type;location;lat;lon;timestamp;P1;durP1;ratioP1;P2;durP2;ratioP2
51006;SDS011;37034;47.886;-3.904;2023-05-16T00:01:51;8.90;;;1.83;;
51006;SDS011;37034;47.886;-3.904;2023-05-16T00:04:17;14.20;;;2.27;;
51006;SDS011;37034;47.886;-3.904;2023-05-16T00:06:43;21.25;;;2.78;;
51006;SDS011;37034;47.886;-3.904;2023-05-16T00:09:08;19.10;;;2.00;;
51006;SDS011;37034;47.886;-3.904;2023-05-16T00:11:34;12.40;;;2.27;;
51006;SDS011;37034;47.886;-3.904;2023-05-16T00:14:00;19.90;;;2.50;;
51006;SDS011;37034;47.886;-3.904;2023-05-16T00:16:26;18.77;;;2.05;;
51006;SDS011;37034;47.886;-3.904;2023-05-16T00:18:53;16.85;;;2.13;;
51006;SDS011;37034;47.886;-3.904;2023-05-16T00:21:21;19.95;;;2.53;;
51006;SDS011;37034;47.886;-3.904;2023-05-16T00:23:47;17.35;;;2.53;;
51006;SDS011;37034;47.886;-3.904;2023-05-16T00:26:13;12.10;;;2.23;;
51006;SDS011;37034;47.886;-3.904;2023-05-16T00:28:39;16.37;;;1.80;;
51006;SDS011;37034;47.886;-3.904;2023-05-16T00:31:05;14.75;;;2.15;;
51006;SDS011;37034;47.886;-3.904;2023-05-16T00:33:31;16.73;;;2.43;;
51006;SDS011;37034;47.886;-3.904;2023-05-16T00:35:57;23.70;;;2.60;;
51006;SDS011;37034;47.886;-3.904;2023-05-16T00:38:23;17.03;;;2.40;;
51006;SDS011;37034;47.886;-3.904;2023-05-16T00:40:49;17.20;;;2.72;;
51006;SDS011;37034;47.886;-3.904;2023-05-16T00:43:14;12.40;;;2.17;;
51006;SDS011;37034;47.886;-3.904;2023-05-16T00:45:40;15.03;;;2.60;;
51006;SDS011;37034;47.886;-3.904;2023-05-16T00:48:06;20.00;;;2.10;;
51006;SDS011;37034;47.886;-3.904;2023-05-16T00:50:33;19.35;;;2.38;;
51006;SDS011;37034;47.886;-3.904;2023-05-16T00:52:59;17.38;;;2.75;;
51006;SDS011;37034;47.886;-3.904;2023-05-16T00:55:25;13.10;;;2.43;;
51006;SDS011;37034;47.886;-3.904;2023-05-16T00:57:51;17.70;;;2.43;;
51006;SDS011;37034;47.886;-3.904;2023-05-16T01:00:16;12.82;;;1.92;;
51006;SDS011;37034;47.886;-3.904;2023-05-16T01:02:43;23.60;;;3.30;;
51006;SDS011;37034;47.886;-3.904;2023-05-16T01:05:11;19.98;;;2.70;;
51006;SDS011;37034;47.886;-3.904;2023-05-16T01:07:37;19.65;;;3.08;;
51006;SDS011;37034;47.886;-3.904;2023-05-16T01:10:03;13.57;;;2.05;;
51006;SDS011;37034;47.886;-3.904;2023-05-16T01:15:21;14.68;;;2.67;;
51006;SDS011;37034;47.886;-3.904;2023-05-16T01:20:43;15.23;;;2.38;;
51006;SDS011;37034;47.886;-3.904;2023-05-16T01:28:38;15.98;;;2.05;;
51006;SDS011;37034;47.886;-3.904;2023-05-16T01:31:05;18.67;;;2.55;;
51006;SDS011;37034;47.886;-3.904;2023-05-16T01:33:31;20.57;;;2.37;;
51006;SDS011;37034;47.886;-3.904;2023-05-16T01:35:58;18.83;;;2.03;;
51006;SDS011;37034;47.886;-3.904;2023-05-16T01:38:29;14.65;;;2.42;;
51006;SDS011;37034;47.886;-3.904;2023-05-16T01:43:58;22.35;;;2.08;;
51006;SDS011;37034;47.886;-3.904;2023-05-16T01:46:28;20.13;;;2.60;;
51006;SDS011;37034;47.886;-3.904;2023-05-16T01:49:04;14.27;;;1.92;;
51006;SDS011;37034;47.886;-3.904;2023-05-16T01:51:33;14.02;;;1.60;;
51006;SDS011;37034;47.886;-3.904;2023-05-16T01:54:05;14.65;;;2.20;;
51006;SDS011;37034;47.886;-3.904;2023-05-16T01:56:36;18.92;;;3.00;;
51006;SDS011;37034;47.886;-3.904;2023-05-16T01:59:03;14.35;;;1.70;;
51006;SDS011;37034;47.886;-3.904;2023-05-16T02:01:29;15.02;;;2.38;;
51006;SDS011;37034;47.886;-3.904;2023-05-16T02:03:56;17.48;;;2.38;;
51006;SDS011;37034;47.886;-3.904;2023-05-16T02:06:22;16.15;;;2.70;;
51006;SDS011;37034;47.886;-3.904;2023-05-16T02:08:49;13.18;;;1.77;;
51006;SDS011;37034;47.886;-3.904;2023-05-16T02:11:15;13.98;;;2.40;;
51006;SDS011;37034;47.886;-3.904;2023-05-16T02:13:41;18.40;;;2.73;;
51006;SDS011;37034;47.886;-3.904;2023-05-16T02:16:09;26.03;;;2.60;;
51006;SDS011;37034;47.886;-3.904;2023-05-16T02:18:35;16.48;;;2.08;;
51006;SDS011;37034;47.886;-3.904;2023-05-16T02:21:01;13.47;;;1.83;;
51006;SDS011;37034;47.886;-3.904;2023-05-16T02:23:26;15.03;;;1.80;;
51006;SDS011;37034;47.886;-3.904;2023-05-16T02:25:52;11.70;;;2.20;;
51006;SDS011;37034;47.886;-3.904;2023-05-16T02:28:17;21.20;;;2.70;;
51006;SDS011;37034;47.886;-3.904;2023-05-16T02:30:43;21.33;;;2.13;;
51006;SDS011;37034;47.886;-3.904;2023-05-16T02:33:09;14.10;;;2.33;;
51006;SDS011;37034;47.886;-3.904;2023-05-16T02:35:35;5.60;;;1.10;;
51006;SDS011;37034;47.886;-3.904;2023-05-16T02:38:01;21.80;;;1.97;;
51006;SDS011;37034;47.886;-3.904;2023-05-16T02:40:26;16.43;;;2.20;;
51006;SDS011;37034;47.886;-3.904;2023-05-16T02:42:52;19.13;;;2.37;;
51006;SDS011;37034;47.886;-3.904;2023-05-16T02:45:17;27.00;;;2.27;;
51006;SDS011;37034;47.886;-3.904;2023-05-16T02:47:43;17.43;;;3.03;;
51006;SDS011;37034;47.886;-3.904;2023-05-16T02:50:09;16.38;;;2.25;;
51006;SDS011;37034;47.886;-3.904;2023-05-16T02:52:35;17.20;;;2.43;;
51006;SDS011;37034;47.886;-3.904;2023-05-16T02:55:00;21.43;;;2.00;;
51006;SDS011;37034;47.886;-3.904;2023-05-16T02:57:26;11.52;;;1.50;;
51006;SDS011;37034;47.886;-3.904;2023-05-16T02:59:52;16.43;;;2.10;;
51006;SDS011;37034;47.886;-3.904;2023-05-16T03:02:17;16.53;;;2.37;;
51006;SDS011;37034;47.886;-3.904;2023-05-16T03:04:43;16.50;;;2.07;;
51006;SDS011;37034;47.886;-3.904;2023-05-16T03:07:09;14.10;;;1.67;;
51006;SDS011;37034;47.886;-3.904;2023-05-16T03:09:34;17.67;;;2.10;;
51006;SDS011;37034;47.886;-3.904;2023-05-16T03:12:00;12.27;;;1.42;;
51006;SDS011;37034;47.886;-3.904;2023-05-16T03:14:26;16.83;;;2.70;;
51006;SDS011;37034;47.886;-3.904;2023-05-16T03:16:51;16.50;;;2.30;;
51006;SDS011;37034;47.886;-3.904;2023-05-16T03:19:17;22.77;;;2.77;;
51006;SDS011;37034;47.886;-3.904;2023-05-16T03:21:43;17.40;;;2.37;;
51006;SDS011;37034;47.886;-3.904;2023-05-16T03:24:09;13.73;;;1.80;;
51006;SDS011;37034;47.886;-3.904;2023-05-16T03:26:35;13.75;;;1.95;;
51006;SDS011;37034;47.886;-3.904;2023-05-16T03:29:00;11.23;;;1.27;;
51006;SDS011;37034;47.886;-3.904;2023-05-16T03:31:26;8.30;;;1.53;;
51006;SDS011;37034;47.886;-3.904;2023-05-16T03:33:52;16.57;;;1.90;;
51006;SDS011;37034;47.886;-3.904;2023-05-16T03:36:19;18.43;;;1.90;;
51006;SDS011;37034;47.886;-3.904;2023-05-16T03:38:46;13.50;;;1.98;;
51006;SDS011;37034;47.886;-3.904;2023-05-16T03:41:12;13.83;;;1.70;;
51006;SDS011;37034;47.886;-3.904;2023-05-16T03:43:37;12.87;;;1.70;;
51006;SDS011;37034;47.886;-3.904;2023-05-16T03:46:03;10.43;;;1.80;;
51006;SDS011;37034;47.886;-3.904;2023-05-16T03:48:28;13.20;;;2.27;;
51006;SDS011;37034;47.886;-3.904;2023-05-16T03:50:54;17.77;;;1.60;;
51006;SDS011;37034;47.886;-3.904;2023-05-16T03:53:20;22.47;;;2.23;;
51006;SDS011;37034;47.886;-3.904;2023-05-16T03:55:45;14.33;;;1.60;;
51006;SDS011;37034;47.886;-3.904;2023-05-16T03:58:11;11.33;;;1.37;;
51006;SDS011;37034;47.886;-3.904;2023-05-16T04:00:37;17.27;;;2.17;;
51006;SDS011;37034;47.886;-3.904;2023-05-16T04:03:02;24.48;;;2.90;;
51006;SDS011;37034;47.886;-3.904;2023-05-16T04:05:28;10.60;;;2.08;;
51006;SDS011;37034;47.886;-3.904;2023-05-16T04:07:54;12.07;;;1.40;;
51006;SDS011;37034;47.886;-3.904;2023-05-16T04:10:20;10.73;;;1.53;;
51006;SDS011;37034;47.886;-3.904;2023-05-16T04:12:45;13.43;;;1.77;;
51006;SDS011;37034;47.886;-3.904;2023-05-16T04:15:11;16.97;;;2.10;;
51006;SDS011;37034;47.886;-3.904;2023-05-16T04:17:37;15.83;;;1.67;;
51006;SDS011;37034;47.886;-3.904;2023-05-16T04:20:03;18.77;;;2.03;;
51006;SDS011;37034;47.886;-3.904;2023-05-16T04:22:29;9.68;;;1.85;;
51006;SDS011;37034;47.886;-3.904;2023-05-16T04:24:54;10.40;;;1.70;;
51006;SDS011;37034;47.886;-3.904;2023-05-16T04:27:21;18.08;;;1.98;;
51006;SDS011;37034;47.886;-3.904;2023-05-16T04:29:47;16.30;;;1.80;;
51006;SDS011;37034;47.886;-3.904;2023-05-16T04:32:13;9.68;;;1.75;;
51006;SDS011;37034;47.886;-3.904;2023-05-16T04:34:39;13.73;;;1.83;;
51006;SDS011;37034;47.886;-3.904;2023-05-16T04:37:05;13.93;;;1.48;;
51006;SDS011;37034;47.886;-3.904;2023-05-16T04:39:32;15.90;;;2.25;;
51006;SDS011;37034;47.886;-3.904;2023-05-16T04:41:58;10.82;;;1.77;;
51006;SDS011;37034;47.886;-3.904;2023-05-16T04:44:27;14.20;;;2.27;;
51006;SDS011;37034;47.886;-3.904;2023-05-16T04:46:52;21.35;;;2.20;;
51006;SDS011;37034;47.886;-3.904;2023-05-16T04:51:45;14.05;;;2.28;;
51006;SDS011;37034;47.886;-3.904;2023-05-16T04:54:12;14.57;;;1.67;;
51006;SDS011;37034;47.886;-3.904;2023-05-16T04:56:38;14.60;;;2.15;;
51006;SDS011;37034;47.886;-3.904;2023-05-16T04:59:03;14.93;;;2.03;;
51006;SDS011;37034;47.886;-3.904;2023-05-16T05:01:29;13.87;;;1.60;;
51006;SDS011;37034;47.886;-3.904;2023-05-16T05:03:55;14.40;;;1.37;;
51006;SDS011;37034;47.886;-3.904;2023-05-16T05:06:20;22.40;;;2.37;;
51006;SDS011;37034;47.886;-3.904;2023-05-16T05:08:46;16.02;;;1.67;;
51006;SDS011;37034;47.886;-3.904;2023-05-16T05:11:12;19.48;;;2.10;;
51006;SDS011;37034;47.886;-3.904;2023-05-16T05:13:38;17.02;;;2.55;;
51006;SDS011;37034;47.886;-3.904;2023-05-16T05:16:04;15.77;;;2.17;;
51006;SDS011;37034;47.886;-3.904;2023-05-16T05:18:30;11.32;;;1.52;;
51006;SDS011;37034;47.886;-3.904;2023-05-16T05:20:56;16.77;;;2.10;;
51006;SDS011;37034;47.886;-3.904;2023-05-16T05:23:22;14.83;;;1.80;;
51006;SDS011;37034;47.886;-3.904;2023-05-16T05:25:48;15.45;;;1.75;;
51006;SDS011;37034;47.886;-3.904;2023-05-16T05:28:14;16.67;;;2.17;;
51006;SDS011;37034;47.886;-3.904;2023-05-16T05:30:40;11.35;;;1.80;;
51006;SDS011;37034;47.886;-3.904;2023-05-16T05:33:06;16.00;;;1.87;;
51006;SDS011;37034;47.886;-3.904;2023-05-16T05:35:31;14.03;;;1.80;;
51006;SDS011;37034;47.886;-3.904;2023-05-16T05:37:57;16.13;;;2.50;;
51006;SDS011;37034;47.886;-3.904;2023-05-16T05:40:23;19.87;;;2.77;;
51006;SDS011;37034;47.886;-3.904;2023-05-16T05:42:48;14.20;;;2.03;;
51006;SDS011;37034;47.886;-3.904;2023-05-16T05:45:14;18.10;;;2.65;;
51006;SDS011;37034;47.886;-3.904;2023-05-16T05:47:40;15.20;;;1.63;;
51006;SDS011;37034;47.886;-3.904;2023-05-16T05:50:06;15.13;;;2.60;;
51006;SDS011;37034;47.886;-3.904;2023-05-16T05:52:35;20.88;;;2.53;;
51006;SDS011;37034;47.886;-3.904;2023-05-16T05:55:01;12.90;;;1.75;;
51006;SDS011;37034;47.886;-3.904;2023-05-16T05:57:27;11.70;;;1.83;;
51006;SDS011;37034;47.886;-3.904;2023-05-16T05:59:53;17.07;;;1.90;;
51006;SDS011;37034;47.886;-3.904;2023-05-16T06:02:19;14.87;;;1.77;;
51006;SDS011;37034;47.886;-3.904;2023-05-16T06:04:44;18.13;;;2.03;;
51006;SDS011;37034;47.886;-3.904;2023-05-16T06:07:10;13.73;;;1.63;;
51006;SDS011;37034;47.886;-3.904;2023-05-16T06:09:36;16.60;;;2.07;;
51006;SDS011;37034;47.886;-3.904;2023-05-16T06:12:01;12.90;;;1.70;;
51006;SDS011;37034;47.886;-3.904;2023-05-16T06:14:28;18.27;;;2.40;;
51006;SDS011;37034;47.886;-3.904;2023-05-16T06:16:53;16.77;;;2.03;;
51006;SDS011;37034;47.886;-3.904;2023-05-16T06:19:19;20.77;;;2.20;;
51006;SDS011;37034;47.886;-3.904;2023-05-16T06:21:45;15.37;;;2.57;;
51006;SDS011;37034;47.886;-3.904;2023-05-16T06:24:10;15.17;;;1.63;;
51006;SDS011;37034;47.886;-3.904;2023-05-16T06:26:36;15.43;;;1.97;;
51006;SDS011;37034;47.886;-3.904;2023-05-16T06:29:02;16.47;;;1.77;;
51006;SDS011;37034;47.886;-3.904;2023-05-16T06:31:27;16.25;;;1.88;;
51006;SDS011;37034;47.886;-3.904;2023-05-16T06:33:53;9.43;;;2.00;;
51006;SDS011;37034;47.886;-3.904;2023-05-16T06:36:19;11.97;;;1.37;;
51006;SDS011;37034;47.886;-3.904;2023-05-16T06:38:44;17.43;;;1.93;;
51006;SDS011;37034;47.886;-3.904;2023-05-16T06:41:10;11.70;;;1.70;;
51006;SDS011;37034;47.886;-3.904;2023-05-16T06:43:36;14.70;;;2.07;;
51006;SDS011;37034;47.886;-3.904;2023-05-16T06:46:01;16.08;;;1.67;;
51006;SDS011;37034;47.886;-3.904;2023-05-16T06:48:28;14.80;;;2.90;;
51006;SDS011;37034;47.886;-3.904;2023-05-16T06:50:54;14.73;;;1.75;;
51006;SDS011;37034;47.886;-3.904;2023-05-16T06:53:19;15.43;;;1.88;;
51006;SDS011;37034;47.886;-3.904;2023-05-16T06:55:45;22.93;;;3.00;;
51006;SDS011;37034;47.886;-3.904;2023-05-16T06:58:11;13.45;;;1.55;;
51006;SDS011;37034;47.886;-3.904;2023-05-16T07:00:37;14.30;;;1.70;;
51006;SDS011;37034;47.886;-3.904;2023-05-16T07:03:03;15.63;;;1.70;;
51006;SDS011;37034;47.886;-3.904;2023-05-16T07:05:29;12.63;;;2.90;;
51006;SDS011;37034;47.886;-3.904;2023-05-16T07:07:55;15.75;;;2.30;;
51006;SDS011;37034;47.886;-3.904;2023-05-16T07:10:21;21.60;;;2.45;;
51006;SDS011;37034;47.886;-3.904;2023-05-16T07:12:47;19.55;;;2.05;;
51006;SDS011;37034;47.886;-3.904;2023-05-16T07:15:12;15.93;;;1.93;;
51006;SDS011;37034;47.886;-3.904;2023-05-16T07:17:38;19.70;;;1.70;;
51006;SDS011;37034;47.886;-3.904;2023-05-16T07:20:05;17.20;;;2.13;;
51006;SDS011;37034;47.886;-3.904;2023-05-16T07:22:32;14.07;;;2.40;;
51006;SDS011;37034;47.886;-3.904;2023-05-16T07:24:57;13.43;;;1.80;;
51006;SDS011;37034;47.886;-3.904;2023-05-16T07:27:25;13.32;;;1.83;;
51006;SDS011;37034;47.886;-3.904;2023-05-16T07:29:51;18.55;;;3.78;;
51006;SDS011;37034;47.886;-3.904;2023-05-16T07:32:17;19.95;;;2.90;;
51006;SDS011;37034;47.886;-3.904;2023-05-16T07:34:43;14.43;;;1.83;;
51006;SDS011;37034;47.886;-3.904;2023-05-16T07:37:08;8.47;;;1.63;;
51006;SDS011;37034;47.886;-3.904;2023-05-16T07:39:37;13.60;;;1.67;;
51006;SDS011;37034;47.886;-3.904;2023-05-16T07:42:05;8.32;;;1.23;;
51006;SDS011;37034;47.886;-3.904;2023-05-16T07:44:31;13.85;;;2.13;;
51006;SDS011;37034;47.886;-3.904;2023-05-16T07:46:57;13.70;;;2.00;;
51006;SDS011;37034;47.886;-3.904;2023-05-16T07:49:22;15.90;;;1.83;;
51006;SDS011;37034;47.886;-3.904;2023-05-16T07:51:48;20.10;;;1.83;;
51006;SDS011;37034;47.886;-3.904;2023-05-16T07:54:13;18.87;;;2.37;;
51006;SDS011;37034;47.886;-3.904;2023-05-16T07:56:39;16.63;;;1.70;;
51006;SDS011;37034;47.886;-3.904;2023-05-16T07:59:05;11.32;;;1.73;;
51006;SDS011;37034;47.886;-3.904;2023-05-16T08:01:31;14.85;;;1.70;;
51006;SDS011;37034;47.886;-3.904;2023-05-16T08:03:56;11.52;;;1.52;;
51006;SDS011;37034;47.886;-3.904;2023-05-16T08:06:22;12.30;;;1.47;;
51006;SDS011;37034;47.886;-3.904;2023-05-16T08:08:48;13.27;;;1.57;;
51006;SDS011;37034;47.886;-3.904;2023-05-16T08:11:13;9.83;;;1.43;;
51006;SDS011;37034;47.886;-3.904;2023-05-16T08:13:39;11.18;;;1.98;;
51006;SDS011;37034;47.886;-3.904;2023-05-16T08:16:05;11.17;;;1.47;;
51006;SDS011;37034;47.886;-3.904;2023-05-16T08:18:31;14.35;;;2.38;;
51006;SDS011;37034;47.886;-3.904;2023-05-16T08:20:57;10.95;;;1.80;;
51006;SDS011;37034;47.886;-3.904;2023-05-16T08:23:22;8.73;;;1.43;;
51006;SDS011;37034;47.886;-3.904;2023-05-16T08:25:48;7.47;;;1.17;;
51006;SDS011;37034;47.886;-3.904;2023-05-16T08:28:14;11.82;;;1.75;;
51006;SDS011;37034;47.886;-3.904;2023-05-16T08:30:39;11.35;;;1.45;;
51006;SDS011;37034;47.886;-3.904;2023-05-16T08:33:05;12.05;;;1.40;;
51006;SDS011;37034;47.886;-3.904;2023-05-16T08:35:31;10.35;;;1.73;;
51006;SDS011;37034;47.886;-3.904;2023-05-16T08:37:59;7.72;;;1.60;;
51006;SDS011;37034;47.886;-3.904;2023-05-16T08:40:26;10.50;;;1.45;;
51006;SDS011;37034;47.886;-3.904;2023-05-16T08:42:52;7.88;;;1.27;;
51006;SDS011;37034;47.886;-3.904;2023-05-16T08:45:18;8.38;;;1.23;;
51006;SDS011;37034;47.886;-3.904;2023-05-16T08:47:45;10.35;;;1.60;;
51006;SDS011;37034;47.886;-3.904;2023-05-16T08:50:13;10.63;;;1.98;;
51006;SDS011;37034;47.886;-3.904;2023-05-16T08:52:40;10.10;;;1.50;;
51006;SDS011;37034;47.886;-3.904;2023-05-16T08:55:07;14.32;;;1.65;;
51006;SDS011;37034;47.886;-3.904;2023-05-16T08:57:35;9.55;;;1.55;;
51006;SDS011;37034;47.886;-3.904;2023-05-16T09:00:02;8.90;;;1.40;;
51006;SDS011;37034;47.886;-3.904;2023-05-16T09:02:35;9.32;;;1.83;;
51006;SDS011;37034;47.886;-3.904;2023-05-16T09:05:02;9.68;;;2.13;;
51006;SDS011;37034;47.886;-3.904;2023-05-16T09:07:30;8.60;;;1.58;;
51006;SDS011;37034;47.886;-3.904;2023-05-16T09:09:55;6.68;;;1.30;;
51006;SDS011;37034;47.886;-3.904;2023-05-16T09:12:21;5.38;;;1.50;;
51006;SDS011;37034;47.886;-3.904;2023-05-16T09:14:47;6.75;;;1.50;;
51006;SDS011;37034;47.886;-3.904;2023-05-16T09:17:13;7.60;;;1.45;;
51006;SDS011;37034;47.886;-3.904;2023-05-16T09:19:40;7.88;;;1.58;;
51006;SDS011;37034;47.886;-3.904;2023-05-16T09:22:08;6.30;;;1.63;;
51006;SDS011;37034;47.886;-3.904;2023-05-16T09:24:39;8.48;;;2.30;;
51006;SDS011;37034;47.886;-3.904;2023-05-16T09:27:12;7.78;;;1.48;;
51006;SDS011;37034;47.886;-3.904;2023-05-16T09:29:40;7.82;;;1.20;;
51006;SDS011;37034;47.886;-3.904;2023-05-16T09:32:11;5.63;;;1.05;;
51006;SDS011;37034;47.886;-3.904;2023-05-16T09:34:45;6.63;;;1.58;;
51006;SDS011;37034;47.886;-3.904;2023-05-16T09:37:15;13.55;;;1.83;;
51006;SDS011;37034;47.886;-3.904;2023-05-16T09:39:48;7.63;;;1.27;;
51006;SDS011;37034;47.886;-3.904;2023-05-16T09:42:14;6.45;;;1.42;;
51006;SDS011;37034;47.886;-3.904;2023-05-16T09:44:52;6.10;;;1.10;;
51006;SDS011;37034;47.886;-3.904;2023-05-16T09:47:20;7.05;;;1.10;;
51006;SDS011;37034;47.886;-3.904;2023-05-16T09:52:15;6.35;;;1.00;;
51006;SDS011;37034;47.886;-3.904;2023-05-16T09:54:41;5.47;;;0.85;;
51006;SDS011;37034;47.886;-3.904;2023-05-16T09:57:07;6.25;;;1.02;;
51006;SDS011;37034;47.886;-3.904;2023-05-16T09:59:39;6.68;;;1.00;;
51006;SDS011;37034;47.886;-3.904;2023-05-16T10:02:05;6.65;;;1.10;;
51006;SDS011;37034;47.886;-3.904;2023-05-16T10:04:34;6.57;;;1.08;;
51006;SDS011;37034;47.886;-3.904;2023-05-16T10:07:03;5.70;;;1.10;;
51006;SDS011;37034;47.886;-3.904;2023-05-16T10:09:31;6.00;;;1.40;;
51006;SDS011;37034;47.886;-3.904;2023-05-16T10:11:59;3.90;;;0.80;;
51006;SDS011;37034;47.886;-3.904;2023-05-16T10:14:33;3.42;;;0.85;;
51006;SDS011;37034;47.886;-3.904;2023-05-16T10:17:02;5.30;;;0.88;;
51006;SDS011;37034;47.886;-3.904;2023-05-16T10:19:28;5.43;;;0.90;;
51006;SDS011;37034;47.886;-3.904;2023-05-16T10:21:56;6.63;;;1.02;;
51006;SDS011;37034;47.886;-3.904;2023-05-16T10:24:59;6.43;;;1.17;;
51006;SDS011;37034;47.886;-3.904;2023-05-16T10:27:22;3.30;;;0.88;;
51006;SDS011;37034;47.886;-3.904;2023-05-16T10:29:48;6.95;;;1.35;;
51006;SDS011;37034;47.886;-3.904;2023-05-16T10:32:15;5.30;;;0.90;;
51006;SDS011;37034;47.886;-3.904;2023-05-16T10:34:41;3.35;;;0.75;;
51006;SDS011;37034;47.886;-3.904;2023-05-16T10:37:08;7.88;;;1.38;;
51006;SDS011;37034;47.886;-3.904;2023-05-16T10:39:34;4.22;;;0.88;;
51006;SDS011;37034;47.886;-3.904;2023-05-16T10:42:01;3.88;;;0.90;;
51006;SDS011;37034;47.886;-3.904;2023-05-16T10:44:27;5.78;;;1.10;;
51006;SDS011;37034;47.886;-3.904;2023-05-16T10:46:57;6.38;;;1.30;;
51006;SDS011;37034;47.886;-3.904;2023-05-16T10:49:25;5.32;;;0.80;;
51006;SDS011;37034;47.886;-3.904;2023-05-16T10:54:37;6.72;;;1.08;;
51006;SDS011;37034;47.886;-3.904;2023-05-16T10:57:08;7.35;;;1.42;;
51006;SDS011;37034;47.886;-3.904;2023-05-16T10:59:39;6.57;;;1.50;;
51006;SDS011;37034;47.886;-3.904;2023-05-16T11:02:20;5.72;;;1.25;;
51006;SDS011;37034;47.886;-3.904;2023-05-16T11:04:50;5.38;;;1.13;;
51006;SDS011;37034;47.886;-3.904;2023-05-16T11:07:17;8.27;;;1.40;;
51006;SDS011;37034;47.886;-3.904;2023-05-16T11:09:44;5.75;;;1.35;;
51006;SDS011;37034;47.886;-3.904;2023-05-16T11:12:17;4.63;;;1.13;;
51006;SDS011;37034;47.886;-3.904;2023-05-16T11:14:46;7.90;;;1.75;;
51006;SDS011;37034;47.886;-3.904;2023-05-16T11:17:22;7.65;;;1.30;;
51006;SDS011;37034;47.886;-3.904;2023-05-16T11:19:55;5.78;;;0.98;;
51006;SDS011;37034;47.886;-3.904;2023-05-16T11:22:25;4.38;;;1.08;;
51006;SDS011;37034;47.886;-3.904;2023-05-16T11:27:21;6.00;;;1.20;;
51006;SDS011;37034;47.886;-3.904;2023-05-16T11:29:48;7.38;;;1.20;;
51006;SDS011;37034;47.886;-3.904;2023-05-16T11:32:17;3.83;;;0.98;;
51006;SDS011;37034;47.886;-3.904;2023-05-16T11:34:43;7.47;;;1.33;;
51006;SDS011;37034;47.886;-3.904;2023-05-16T11:37:12;5.18;;;0.98;;
51006;SDS011;37034;47.886;-3.904;2023-05-16T11:39:39;6.30;;;1.00;;
51006;SDS011;37034;47.886;-3.904;2023-05-16T11:42:04;5.20;;;1.17;;
51006;SDS011;37034;47.886;-3.904;2023-05-16T11:44:30;4.25;;;1.23;;
51006;SDS011;37034;47.886;-3.904;2023-05-16T11:46:56;3.40;;;1.00;;
51006;SDS011;37034;47.886;-3.904;2023-05-16T11:49:22;3.72;;;1.13;;
51006;SDS011;37034;47.886;-3.904;2023-05-16T11:51:47;7.82;;;1.45;;
51006;SDS011;37034;47.886;-3.904;2023-05-16T11:54:15;5.50;;;1.13;;
51006;SDS011;37034;47.886;-3.904;2023-05-16T11:56:43;4.90;;;0.90;;
51006;SDS011;37034;47.886;-3.904;2023-05-16T11:59:09;14.65;;;2.15;;
51006;SDS011;37034;47.886;-3.904;2023-05-16T12:01:37;6.88;;;1.17;;
51006;SDS011;37034;47.886;-3.904;2023-05-16T12:04:10;6.20;;;1.08;;
51006;SDS011;37034;47.886;-3.904;2023-05-16T12:06:37;7.07;;;0.90;;
51006;SDS011;37034;47.886;-3.904;2023-05-16T12:09:04;8.88;;;1.15;;
51006;SDS011;37034;47.886;-3.904;2023-05-16T12:11:40;4.43;;;0.95;;
51006;SDS011;37034;47.886;-3.904;2023-05-16T12:14:08;7.45;;;1.27;;
51006;SDS011;37034;47.886;-3.904;2023-05-16T12:16:37;7.03;;;1.00;;
51006;SDS011;37034;47.886;-3.904;2023-05-16T12:19:06;7.05;;;1.17;;
51006;SDS011;37034;47.886;-3.904;2023-05-16T12:21:33;4.70;;;0.90;;
51006;SDS011;37034;47.886;-3.904;2023-05-16T12:24:00;8.82;;;1.85;;
51006;SDS011;37034;47.886;-3.904;2023-05-16T12:26:30;7.47;;;1.77;;
51006;SDS011;37034;47.886;-3.904;2023-05-16T12:29:00;11.93;;;1.70;;
51006;SDS011;37034;47.886;-3.904;2023-05-16T12:31:30;4.90;;;0.90;;
51006;SDS011;37034;47.886;-3.904;2023-05-16T12:34:00;3.65;;;0.85;;
51006;SDS011;37034;47.886;-3.904;2023-05-16T12:36:29;3.80;;;0.88;;
51006;SDS011;37034;47.886;-3.904;2023-05-16T12:38:59;3.70;;;1.08;;
51006;SDS011;37034;47.886;-3.904;2023-05-16T12:41:27;7.07;;;1.15;;
51006;SDS011;37034;47.886;-3.904;2023-05-16T12:44:13;4.20;;;1.10;;
51006;SDS011;37034;47.886;-3.904;2023-05-16T12:46:44;4.70;;;1.02;;
51006;SDS011;37034;47.886;-3.904;2023-05-16T12:49:13;4.95;;;1.20;;
51006;SDS011;37034;47.886;-3.904;2023-05-16T12:51:39;3.85;;;1.02;;
51006;SDS011;37034;47.886;-3.904;2023-05-16T12:54:12;2.97;;;0.85;;
51006;SDS011;37034;47.886;-3.904;2023-05-16T12:56:39;6.82;;;1.30;;
51006;SDS011;37034;47.886;-3.904;2023-05-16T12:59:05;7.32;;;1.20;;
51006;SDS011;37034;47.886;-3.904;2023-05-16T13:01:31;7.07;;;0.95;;
51006;SDS011;37034;47.886;-3.904;2023-05-16T13:03:59;3.72;;;1.00;;
51006;SDS011;37034;47.886;-3.904;2023-05-16T13:06:25;5.30;;;1.15;;
51006;SDS011;37034;47.886;-3.904;2023-05-16T13:08:50;4.90;;;1.10;;
51006;SDS011;37034;47.886;-3.904;2023-05-16T13:11:16;9.38;;;1.23;;
51006;SDS011;37034;47.886;-3.904;2023-05-16T13:16:08;7.22;;;1.00;;
51006;SDS011;37034;47.886;-3.904;2023-05-16T13:18:34;8.02;;;1.10;;
51006;SDS011;37034;47.886;-3.904;2023-05-16T13:21:01;4.93;;;0.70;;
51006;SDS011;37034;47.886;-3.904;2023-05-16T13:23:28;6.72;;;1.02;;
51006;SDS011;37034;47.886;-3.904;2023-05-16T13:25:54;5.88;;;1.52;;
51006;SDS011;37034;47.886;-3.904;2023-05-16T13:28:20;6.43;;;1.10;;
51006;SDS011;37034;47.886;-3.904;2023-05-16T13:30:46;4.95;;;1.10;;
51006;SDS011;37034;47.886;-3.904;2023-05-16T13:33:12;10.48;;;1.38;;
51006;SDS011;37034;47.886;-3.904;2023-05-16T13:35:37;5.10;;;1.00;;
51006;SDS011;37034;47.886;-3.904;2023-05-16T13:38:03;6.07;;;1.52;;
51006;SDS011;37034;47.886;-3.904;2023-05-16T13:40:29;6.00;;;1.20;;
51006;SDS011;37034;47.886;-3.904;2023-05-16T13:42:55;7.70;;;1.20;;
51006;SDS011;37034;47.886;-3.904;2023-05-16T13:45:21;6.03;;;1.52;;
51006;SDS011;37034;47.886;-3.904;2023-05-16T13:47:47;5.28;;;1.42;;
51006;SDS011;37034;47.886;-3.904;2023-05-16T13:50:13;4.18;;;1.45;;
51006;SDS011;37034;47.886;-3.904;2023-05-16T13:52:38;4.10;;;0.90;;
51006;SDS011;37034;47.886;-3.904;2023-05-16T13:55:04;6.75;;;1.33;;
51006;SDS011;37034;47.886;-3.904;2023-05-16T13:57:31;5.30;;;1.20;;
51006;SDS011;37034;47.886;-3.904;2023-05-16T13:59:58;5.13;;;1.33;;
51006;SDS011;37034;47.886;-3.904;2023-05-16T14:02:23;7.35;;;1.33;;
51006;SDS011;37034;47.886;-3.904;2023-05-16T14:07:16;5.00;;;1.05;;
51006;SDS011;37034;47.886;-3.904;2023-05-16T14:09:42;4.60;;;1.10;;
51006;SDS011;37034;47.886;-3.904;2023-05-16T14:12:08;8.40;;;1.45;;
51006;SDS011;37034;47.886;-3.904;2023-05-16T14:14:34;6.65;;;1.20;;
51006;SDS011;37034;47.886;-3.904;2023-05-16T14:17:00;6.95;;;1.25;;
51006;SDS011;37034;47.886;-3.904;2023-05-16T14:19:27;6.13;;;1.45;;
51006;SDS011;37034;47.886;-3.904;2023-05-16T14:21:56;5.25;;;1.20;;
51006;SDS011;37034;47.886;-3.904;2023-05-16T14:24:21;5.97;;;1.13;;
51006;SDS011;37034;47.886;-3.904;2023-05-16T14:26:47;4.95;;;1.00;;
51006;SDS011;37034;47.886;-3.904;2023-05-16T14:29:13;7.75;;;1.13;;
51006;SDS011;37034;47.886;-3.904;2023-05-16T14:31:39;10.05;;;1.63;;
51006;SDS011;37034;47.886;-3.904;2023-05-16T14:34:04;5.97;;;1.30;;
51006;SDS011;37034;47.886;-3.904;2023-05-16T14:36:30;6.20;;;1.42;;
51006;SDS011;37034;47.886;-3.904;2023-05-16T14:38:57;4.25;;;1.17;;
51006;SDS011;37034;47.886;-3.904;2023-05-16T14:41:23;7.07;;;1.40;;
51006;SDS011;37034;47.886;-3.904;2023-05-16T14:43:48;5.40;;;1.05;;
51006;SDS011;37034;47.886;-3.904;2023-05-16T14:46:14;6.78;;;1.23;;
51006;SDS011;37034;47.886;-3.904;2023-05-16T14:48:41;6.97;;;1.40;;
51006;SDS011;37034;47.886;-3.904;2023-05-16T14:51:06;8.98;;;1.15;;
51006;SDS011;37034;47.886;-3.904;2023-05-16T14:53:32;3.40;;;0.90;;